createdAt,value
2022-09-20T00:01:32.310Z,8.00
2022-09-20T00:04:05.396Z,8.00
2022-09-20T00:06:36.044Z,7.90
2022-09-20T00:09:05.464Z,7.90
2022-09-20T00:11:37.997Z,7.90
2022-09-20T00:14:08.748Z,7.90
2022-09-20T00:16:40.341Z,7.90
2022-09-20T00:19:09.199Z,7.90
2022-09-20T00:21:39.158Z,7.90
2022-09-20T00:24:07.430Z,7.90
2022-09-20T00:26:35.448Z,7.90
2022-09-20T00:29:03.677Z,7.90
2022-09-20T00:31:31.741Z,7.90
2022-09-20T00:34:17.637Z,7.90
2022-09-20T00:36:47.455Z,7.90
2022-09-20T00:39:17.020Z,7.80
2022-09-20T00:41:45.190Z,7.80
2022-09-20T00:44:57.715Z,7.80
2022-09-20T00:47:37.338Z,7.80
2022-09-20T00:50:15.035Z,7.90
2022-09-20T00:52:49.133Z,7.90
2022-09-20T00:55:18.258Z,8.00
2022-09-20T00:57:48.159Z,8.00
2022-09-20T01:00:16.696Z,8.10
2022-09-20T01:02:49.044Z,8.10
2022-09-20T01:05:18.770Z,8.20
2022-09-20T01:07:49.658Z,8.40
2022-09-20T01:10:18.390Z,8.40
2022-09-20T01:12:47.793Z,8.50
2022-09-20T01:15:16.661Z,8.60
2022-09-20T01:17:48.659Z,8.70
2022-09-20T01:20:21.004Z,8.70
2022-09-20T01:23:12.106Z,8.70
2022-09-20T01:26:08.296Z,8.70
2022-09-20T01:28:39.224Z,8.70
2022-09-20T01:31:12.206Z,8.70
2022-09-20T01:33:45.596Z,8.70
2022-09-20T01:36:19.338Z,8.80
2022-09-20T01:38:56.790Z,8.70
2022-09-20T01:41:29.510Z,8.70
2022-09-20T01:44:07.963Z,8.70
2022-09-20T01:46:37.876Z,8.70
2022-09-20T01:49:17.322Z,8.70
2022-09-20T01:52:33.422Z,8.70
2022-09-20T01:55:32.407Z,8.70
2022-09-20T01:58:33.449Z,8.80
2022-09-20T02:01:25.444Z,8.80
2022-09-20T02:04:15.449Z,8.80
2022-09-20T02:07:01.270Z,8.80
2022-09-20T02:09:46.931Z,8.80
2022-09-20T02:12:37.315Z,8.80
2022-09-20T02:15:14.538Z,8.80
2022-09-20T02:17:53.134Z,8.90
2022-09-20T02:20:37.192Z,8.90
2022-09-20T02:23:18.130Z,8.90
2022-09-20T02:26:07.508Z,8.90
2022-09-20T02:28:52.569Z,8.90
2022-09-20T02:31:34.283Z,8.90
2022-09-20T02:34:26.268Z,9.10
2022-09-20T02:37:10.270Z,8.90
2022-09-20T02:39:48.231Z,8.90
2022-09-20T02:42:20.675Z,9.00
2022-09-20T02:45:00.965Z,9.00
2022-09-20T02:47:34.354Z,9.00
2022-09-20T02:50:22.162Z,9.00
2022-09-20T02:53:04.530Z,9.00
2022-09-20T02:55:41.692Z,9.00
2022-09-20T02:58:25.185Z,9.00
2022-09-20T03:01:02.278Z,9.00
2022-09-20T03:03:41.446Z,9.00
2022-09-20T03:06:19.172Z,9.00
2022-09-20T03:08:55.363Z,9.10
2022-09-20T03:11:31.759Z,9.10
2022-09-20T03:14:13.322Z,9.10
2022-09-20T03:16:52.679Z,9.10
2022-09-20T03:19:34.407Z,9.10
2022-09-20T03:22:15.892Z,9.10
2022-09-20T03:24:59.872Z,9.10
2022-09-20T03:27:33.196Z,9.20
2022-09-20T03:30:16.273Z,9.20
2022-09-20T03:32:56.522Z,9.20
2022-09-20T03:35:37.881Z,9.20
2022-09-20T03:38:23.233Z,9.20
2022-09-20T03:41:23.305Z,9.20
2022-09-20T03:44:10.406Z,9.20
2022-09-20T03:46:45.585Z,9.20
2022-09-20T03:49:59.467Z,9.20
2022-09-20T03:52:43.267Z,9.20
2022-09-20T03:55:50.321Z,9.20
2022-09-20T03:58:29.518Z,9.20
2022-09-20T04:01:16.364Z,9.20
2022-09-20T04:03:54.322Z,9.10
2022-09-20T04:06:50.659Z,9.20
2022-09-20T04:09:47.726Z,9.20
2022-09-20T04:12:28.154Z,9.10
2022-09-20T04:15:07.026Z,9.10
2022-09-20T04:17:43.970Z,9.10
2022-09-20T04:20:21.305Z,9.20
2022-09-20T04:22:52.883Z,9.10
2022-09-20T04:25:24.959Z,9.10
2022-09-20T04:27:59.668Z,9.10
2022-09-20T04:30:30.964Z,9.10
2022-09-20T04:33:02.652Z,9.10
2022-09-20T04:35:57.912Z,9.10
2022-09-20T04:38:27.502Z,9.10
2022-09-20T04:41:17.982Z,9.10
2022-09-20T04:44:13.412Z,9.10
2022-09-20T04:47:08.527Z,9.10
2022-09-20T04:50:11.548Z,9.20
2022-09-20T04:52:59.798Z,9.10
2022-09-20T04:55:57.072Z,9.20
2022-09-20T04:58:38.468Z,9.10
2022-09-20T05:01:55.798Z,9.10
2022-09-20T05:05:09.911Z,9.10
2022-09-20T05:08:07.561Z,9.10
2022-09-20T05:11:12.050Z,9.10
2022-09-20T05:13:57.163Z,9.10
2022-09-20T05:16:39.658Z,9.10
2022-09-20T05:19:37.421Z,9.10
2022-09-20T05:33:17.385Z,9.10
2022-09-20T05:35:56.746Z,9.10
2022-09-20T05:38:35.484Z,9.10
2022-09-20T05:41:16.330Z,9.20
2022-09-20T05:43:59.782Z,9.20
2022-09-20T05:46:37.714Z,9.30
2022-09-20T05:49:15.999Z,9.30
2022-09-20T05:51:57.203Z,9.20
2022-09-20T05:54:36.445Z,9.30
2022-09-20T05:57:18.003Z,9.10
2022-09-20T06:00:01.619Z,9.30
2022-09-20T06:02:41.250Z,9.30
2022-09-20T06:05:16.385Z,9.40
2022-09-20T06:08:17.061Z,9.40
2022-09-20T06:11:17.168Z,9.50
2022-09-20T06:14:03.743Z,9.50
2022-09-20T06:16:42.398Z,9.60
2022-09-20T06:19:20.101Z,9.70
2022-09-20T06:21:53.143Z,9.80
2022-09-20T06:24:30.591Z,9.80
2022-09-20T06:27:09.572Z,9.90
2022-09-20T06:29:44.431Z,9.80
2022-09-20T06:32:13.840Z,9.70
2022-09-20T06:34:50.623Z,9.70
2022-09-20T06:38:02.424Z,9.70
2022-09-20T06:40:58.658Z,9.80
2022-09-20T06:43:29.038Z,9.90
2022-09-20T06:46:00.129Z,9.80
2022-09-20T06:48:33.993Z,10.00
2022-09-20T06:51:03.274Z,10.10
2022-09-20T06:56:25.736Z,10.00
2022-09-20T06:58:54.727Z,10.10
2022-09-20T07:01:30.009Z,10.00
2022-09-20T07:04:01.025Z,9.90
2022-09-20T07:06:29.603Z,9.80
2022-09-20T07:08:59.284Z,9.80
2022-09-20T07:11:27.934Z,9.70
2022-09-20T07:13:59.554Z,9.70
2022-09-20T07:16:28.305Z,9.60
2022-09-20T07:18:57.587Z,9.40
2022-09-20T07:21:25.981Z,9.40
2022-09-20T07:23:54.712Z,9.30
2022-09-20T07:26:26.653Z,9.30
2022-09-20T07:28:55.434Z,9.70
2022-09-20T07:31:27.458Z,9.80
2022-09-20T07:33:55.837Z,10.00
2022-09-20T07:36:23.901Z,10.20
2022-09-20T07:38:53.790Z,10.50
2022-09-20T07:44:20.323Z,10.70
2022-09-20T07:46:53.139Z,10.80
2022-09-20T07:49:21.946Z,11.00
2022-09-20T07:51:50.689Z,11.00
2022-09-20T07:54:19.216Z,11.30
2022-09-20T07:56:49.173Z,11.20
2022-09-20T07:59:17.660Z,11.10
2022-09-20T08:01:45.714Z,10.90
2022-09-20T08:04:18.929Z,10.80
2022-09-20T08:06:49.201Z,10.90
2022-09-20T08:09:19.380Z,10.90
2022-09-20T08:15:29.659Z,10.90
2022-09-20T08:17:57.504Z,11.10
2022-09-20T08:20:25.581Z,11.10
2022-09-20T08:23:19.484Z,11.10
2022-09-20T08:25:43.242Z,11.00
2022-09-20T08:28:10.924Z,11.10
2022-09-20T08:30:40.234Z,11.30
2022-09-20T08:33:08.161Z,11.40
2022-09-20T08:35:39.793Z,11.30
2022-09-20T08:40:58.989Z,11.30
2022-09-20T08:43:30.865Z,11.40
2022-09-20T08:46:05.452Z,11.40
2022-09-20T08:48:34.991Z,11.40
2022-09-20T08:51:05.651Z,11.50
2022-09-20T08:53:35.012Z,11.40
2022-09-20T08:56:04.670Z,11.60
2022-09-20T08:58:35.697Z,11.70
2022-09-20T09:01:05.586Z,12.00
2022-09-20T09:03:36.515Z,12.00
2022-09-20T09:06:08.803Z,12.10
2022-09-20T09:08:40.356Z,12.20
2022-09-20T09:11:12.810Z,12.10
2022-09-20T09:13:45.591Z,11.90
2022-09-20T09:16:23.095Z,11.90
2022-09-20T09:18:55.267Z,12.10
2022-09-20T09:21:25.802Z,12.40
2022-09-20T09:24:01.176Z,12.60
2022-09-20T09:26:36.275Z,12.70
2022-09-20T09:29:25.229Z,12.80
2022-09-20T09:31:55.132Z,12.90
2022-09-20T09:34:26.085Z,13.10
2022-09-20T09:36:55.559Z,12.90
2022-09-20T09:39:29.136Z,12.70
2022-09-20T09:42:01.092Z,12.60
2022-09-20T09:44:32.634Z,12.70
2022-09-20T09:47:02.452Z,12.80
2022-09-20T09:49:34.253Z,12.80
2022-09-20T09:52:06.723Z,13.00
2022-09-20T09:54:38.607Z,13.10
2022-09-20T09:57:24.322Z,13.00
2022-09-20T10:00:07.071Z,12.70
2022-09-20T10:03:17.473Z,12.50
2022-09-20T10:05:59.568Z,12.60
2022-09-20T10:08:37.808Z,12.50
2022-09-20T10:11:15.530Z,12.60
2022-09-20T10:13:52.428Z,12.50
2022-09-20T10:16:30.226Z,12.60
2022-09-20T10:19:08.455Z,12.50
2022-09-20T10:21:45.101Z,12.50
2022-09-20T10:24:30.305Z,12.50
2022-09-20T10:27:17.847Z,12.40
2022-09-20T10:29:59.662Z,12.20
2022-09-20T10:32:39.420Z,12.30
2022-09-20T10:35:24.292Z,12.40
2022-09-20T10:38:07.621Z,12.40
2022-09-20T10:40:57.194Z,12.70
2022-09-20T10:43:43.037Z,12.90
2022-09-20T10:46:37.944Z,13.00
2022-09-20T10:49:20.754Z,13.20
2022-09-20T10:52:01.214Z,13.00
2022-09-20T10:54:41.573Z,12.90
2022-09-20T10:57:25.973Z,12.70
2022-09-20T11:00:01.584Z,12.60
2022-09-20T11:02:45.952Z,12.70
2022-09-20T11:05:27.617Z,12.80
2022-09-20T11:08:05.051Z,12.90
2022-09-20T11:10:39.837Z,13.10
2022-09-20T11:13:16.755Z,13.30
2022-09-20T11:15:49.900Z,13.30
2022-09-20T11:18:23.643Z,13.50
2022-09-20T11:20:59.517Z,13.40
2022-09-20T11:23:38.597Z,13.20
2022-09-20T11:26:12.999Z,13.20
2022-09-20T11:28:46.312Z,13.20
2022-09-20T11:31:21.119Z,12.90
2022-09-20T11:33:53.585Z,13.00
2022-09-20T11:36:26.383Z,13.00
2022-09-20T11:39:00.008Z,13.30
2022-09-20T11:41:29.554Z,13.40
2022-09-20T11:44:02.576Z,13.50
2022-09-20T11:46:34.510Z,13.70
2022-09-20T11:49:07.862Z,13.90
2022-09-20T11:52:10.507Z,14.00
2022-09-20T11:54:58.298Z,14.10
2022-09-20T11:58:00.224Z,14.20
2022-09-20T12:00:32.117Z,14.20
2022-09-20T12:03:01.513Z,14.20
2022-09-20T12:05:33.755Z,14.20
2022-09-20T12:08:04.172Z,14.20
2022-09-20T12:10:37.252Z,14.50
2022-09-20T12:13:08.878Z,14.70
2022-09-20T12:15:40.089Z,14.90
2022-09-20T12:18:48.605Z,15.10
2022-09-20T12:21:20.818Z,15.20
2022-09-20T12:24:19.307Z,15.20
2022-09-20T12:26:51.589Z,15.10
2022-09-20T12:29:55.047Z,15.10
2022-09-20T12:32:46.679Z,15.10
2022-09-20T12:35:53.690Z,15.30
2022-09-20T12:38:50.454Z,15.20
2022-09-20T12:41:27.945Z,15.20
2022-09-20T12:44:01.891Z,15.00
2022-09-20T12:46:38.027Z,15.10
2022-09-20T12:49:58.284Z,15.00
2022-09-20T12:52:48.411Z,15.20
2022-09-20T12:55:33.863Z,15.00
2022-09-20T12:58:05.078Z,15.20
2022-09-20T13:00:39.153Z,15.40
2022-09-20T13:03:24.601Z,15.40
2022-09-20T13:06:27.238Z,15.40
2022-09-20T13:09:03.817Z,15.60
2022-09-20T13:11:36.162Z,15.60
2022-09-20T13:14:08.060Z,15.40
2022-09-20T13:16:47.389Z,15.60
2022-09-20T13:19:19.313Z,15.70
2022-09-20T13:21:55.292Z,15.50
2022-09-20T13:24:25.590Z,15.10
2022-09-20T13:26:55.215Z,14.30
2022-09-20T13:29:30.327Z,13.70
2022-09-20T13:32:15.620Z,12.80
2022-09-20T13:34:43.701Z,12.40
2022-09-20T13:37:21.135Z,12.10
2022-09-20T13:39:55.210Z,11.80
2022-09-20T13:42:23.427Z,11.40
2022-09-20T13:44:51.908Z,11.00
2022-09-20T13:47:25.582Z,10.90
2022-09-20T13:49:53.662Z,10.80
2022-09-20T13:52:28.754Z,10.70
2022-09-20T13:54:56.936Z,10.70
2022-09-20T13:57:29.065Z,10.70
2022-09-20T13:59:58.155Z,10.70
2022-09-20T14:02:30.546Z,10.60
2022-09-20T14:05:01.912Z,10.70
2022-09-20T14:07:31.800Z,10.80
2022-09-20T14:10:00.335Z,10.80
2022-09-20T14:12:28.968Z,10.90
2022-09-20T14:14:58.489Z,10.90
2022-09-20T14:17:27.249Z,10.90
2022-09-20T14:19:57.561Z,11.00
2022-09-20T14:22:28.062Z,11.00
2022-09-20T14:25:19.395Z,11.00
2022-09-20T14:27:47.358Z,11.10
2022-09-20T14:30:32.368Z,11.10
2022-09-20T14:33:00.657Z,11.10
2022-09-20T14:35:29.020Z,11.10
2022-09-20T14:37:59.996Z,11.10
2022-09-20T14:40:31.440Z,11.10
2022-09-20T14:43:01.676Z,11.20
2022-09-20T14:45:32.743Z,11.20
2022-09-20T14:48:09.546Z,11.30
2022-09-20T14:50:40.302Z,11.40
2022-09-20T14:53:27.406Z,11.40
2022-09-20T14:56:10.421Z,11.40
2022-09-20T14:59:04.585Z,11.40
2022-09-20T15:01:33.792Z,11.40
2022-09-20T15:04:08.892Z,11.40
2022-09-20T15:06:39.095Z,11.40
2022-09-20T15:09:07.939Z,11.40
2022-09-20T15:11:37.290Z,11.40
2022-09-20T15:14:05.162Z,11.40
2022-09-20T15:16:33.870Z,11.30
2022-09-20T15:19:01.914Z,11.30
2022-09-20T15:21:30.660Z,11.30
2022-09-20T15:23:59.145Z,11.30
2022-09-20T15:26:27.350Z,11.30
2022-09-20T15:28:56.702Z,11.40
2022-09-20T15:31:25.076Z,11.40
2022-09-20T15:33:53.371Z,11.40
2022-09-20T15:36:21.486Z,11.50
2022-09-20T15:38:49.517Z,11.40
2022-09-20T15:41:17.494Z,11.40
2022-09-20T15:43:45.308Z,11.40
2022-09-20T15:46:23.039Z,11.50
2022-09-20T15:48:51.243Z,11.50
2022-09-20T15:51:19.171Z,11.50
2022-09-20T15:53:49.417Z,11.60
2022-09-20T15:56:21.248Z,11.60
2022-09-20T15:58:51.191Z,11.60
2022-09-20T16:01:20.755Z,11.60
2022-09-20T16:03:51.175Z,11.70
2022-09-20T16:06:19.432Z,11.60
2022-09-20T16:08:47.726Z,11.60
2022-09-20T16:11:22.243Z,11.60
2022-09-20T16:13:54.804Z,11.50
2022-09-20T16:16:24.866Z,11.40
2022-09-20T16:19:10.745Z,11.30
2022-09-20T16:21:40.230Z,11.20
2022-09-20T16:24:08.868Z,11.10
2022-09-20T16:26:37.923Z,11.10
2022-09-20T16:29:07.503Z,11.00
2022-09-20T16:31:39.854Z,10.90
2022-09-20T16:34:12.996Z,10.80
2022-09-20T16:36:43.410Z,10.70
2022-09-20T16:39:11.995Z,10.70
2022-09-20T16:41:40.665Z,10.60
2022-09-20T16:44:09.049Z,10.50
2022-09-20T16:46:38.565Z,10.40
2022-09-20T16:49:09.480Z,10.30
2022-09-20T16:51:39.505Z,10.30
2022-09-20T16:54:11.754Z,10.10
2022-09-20T16:56:41.804Z,10.10
2022-09-20T16:59:10.845Z,10.10
2022-09-20T17:01:41.366Z,10.00
2022-09-20T17:04:10.423Z,9.90
2022-09-20T17:06:39.538Z,9.90
2022-09-20T17:09:08.518Z,9.80
2022-09-20T17:11:38.319Z,9.80
2022-09-20T17:14:07.436Z,9.70
2022-09-20T17:16:37.195Z,9.60
2022-09-20T17:19:08.790Z,9.50
2022-09-20T17:21:38.742Z,9.40
2022-09-20T17:24:07.901Z,9.30
2022-09-20T17:26:38.306Z,9.20
2022-09-20T17:29:08.013Z,9.20
2022-09-20T17:31:38.169Z,9.10
2022-09-20T17:34:09.683Z,9.10
2022-09-20T17:36:40.467Z,9.00
2022-09-20T17:39:10.917Z,9.00
2022-09-20T17:41:39.884Z,8.90
2022-09-20T17:44:10.074Z,8.90
2022-09-20T17:46:39.984Z,8.80
2022-09-20T17:49:16.679Z,8.80
2022-09-20T17:51:46.865Z,8.80
2022-09-20T17:54:15.531Z,8.70
2022-09-20T17:56:44.996Z,8.60
2022-09-20T17:59:16.199Z,8.50
2022-09-20T18:01:45.811Z,8.50
2022-09-20T18:04:15.975Z,8.40
2022-09-20T18:06:47.601Z,8.30
2022-09-20T18:09:17.632Z,8.30
2022-09-20T18:11:49.490Z,8.30
2022-09-20T18:14:19.205Z,8.20
2022-09-20T18:16:47.551Z,8.20
2022-09-20T18:19:16.973Z,8.20
2022-09-20T18:21:45.671Z,8.20
2022-09-20T18:24:13.746Z,8.20
2022-09-20T18:26:42.111Z,8.10
2022-09-20T18:29:12.471Z,8.20
2022-09-20T18:31:43.286Z,8.20
2022-09-20T18:34:15.530Z,8.10
2022-09-20T18:36:48.538Z,8.10
2022-09-20T18:39:16.598Z,8.10
2022-09-20T18:41:44.888Z,8.10
2022-09-20T18:44:14.548Z,8.10
2022-09-20T18:46:42.790Z,8.20
2022-09-20T18:49:13.504Z,8.20
2022-09-20T18:51:42.105Z,8.10
2022-09-20T18:54:12.806Z,8.10
2022-09-20T18:56:42.610Z,8.10
2022-09-20T18:59:15.975Z,8.10
2022-09-20T19:01:59.079Z,8.00
2022-09-20T19:04:35.395Z,8.00
2022-09-20T19:07:14.316Z,8.00
2022-09-20T19:09:50.424Z,8.00
2022-09-20T19:12:24.462Z,8.00
2022-09-20T19:15:04.783Z,7.90
2022-09-20T19:17:53.073Z,7.90
2022-09-20T19:20:28.140Z,7.90
2022-09-20T19:25:53.450Z,7.70
2022-09-20T19:28:25.694Z,7.60
2022-09-20T19:30:55.802Z,7.60
2022-09-20T19:33:24.255Z,7.60
2022-09-20T19:35:53.499Z,7.50
2022-09-20T19:38:35.438Z,7.40
2022-09-20T19:41:13.945Z,7.40
2022-09-20T19:43:53.289Z,7.30
2022-09-20T19:46:40.821Z,7.30
2022-09-20T19:49:15.563Z,7.30
2022-09-20T19:51:45.608Z,7.20
2022-09-20T19:54:17.442Z,7.20
2022-09-20T19:56:53.755Z,7.10
2022-09-20T19:59:23.585Z,7.10
2022-09-20T20:01:52.782Z,7.10
2022-09-20T20:04:21.901Z,7.10
2022-09-20T20:06:57.956Z,7.20
2022-09-20T20:09:37.054Z,7.20
2022-09-20T20:12:14.661Z,7.20
2022-09-20T20:14:53.298Z,7.10
2022-09-20T20:17:36.061Z,7.20
2022-09-20T20:20:16.354Z,7.10
2022-09-20T20:23:20.343Z,7.10
2022-09-20T20:25:55.681Z,7.10
2022-09-20T20:28:24.905Z,7.10
2022-09-20T20:30:56.626Z,7.00
2022-09-20T20:33:27.144Z,7.00
2022-09-20T20:35:56.671Z,7.00
2022-09-20T20:38:26.052Z,6.90
2022-09-20T20:41:04.568Z,6.90
2022-09-20T20:43:34.778Z,6.90
2022-09-20T20:46:02.879Z,6.90
2022-09-20T20:48:31.171Z,6.80
2022-09-20T20:51:04.424Z,6.70
2022-09-20T20:53:34.360Z,6.80
2022-09-20T20:56:07.384Z,6.70
2022-09-20T20:58:40.301Z,6.70
2022-09-20T21:01:10.680Z,6.60
2022-09-20T21:03:38.967Z,6.60
2022-09-20T21:06:07.726Z,6.60
2022-09-20T21:08:37.392Z,6.60
2022-09-20T21:11:06.915Z,6.50
2022-09-20T21:13:36.711Z,6.50
2022-09-20T21:16:06.471Z,6.40
2022-09-20T21:18:34.767Z,6.40
2022-09-20T21:21:03.669Z,6.40
2022-09-20T21:23:34.966Z,6.30
2022-09-20T21:26:07.385Z,6.30
2022-09-20T21:28:38.019Z,6.30
2022-09-20T21:31:07.209Z,6.30
2022-09-20T21:33:36.759Z,6.20
2022-09-20T21:36:07.614Z,6.20
2022-09-20T21:38:36.241Z,6.20
2022-09-20T21:41:06.382Z,6.20
2022-09-20T21:43:35.303Z,6.20
2022-09-20T21:46:05.231Z,6.10
2022-09-20T21:48:33.740Z,6.10
2022-09-20T21:51:05.229Z,6.10
2022-09-20T21:53:34.188Z,6.00
2022-09-20T21:56:04.535Z,6.00
2022-09-20T21:58:32.863Z,5.90
2022-09-20T22:01:03.040Z,5.90
2022-09-20T22:03:34.110Z,5.80
2022-09-20T22:06:10.151Z,5.70
2022-09-20T22:08:38.731Z,5.70
2022-09-20T22:11:10.218Z,5.80
2022-09-20T22:13:42.227Z,5.70
2022-09-20T22:16:12.636Z,5.70
2022-09-20T22:18:44.077Z,5.70
2022-09-20T22:21:15.021Z,5.70
2022-09-20T22:23:43.428Z,5.70
2022-09-20T22:26:13.241Z,5.70
2022-09-20T22:31:11.832Z,5.60
2022-09-20T22:33:45.596Z,5.60
2022-09-20T22:36:16.598Z,5.60
2022-09-20T22:38:45.758Z,5.50
2022-09-20T22:41:15.264Z,5.50
2022-09-20T22:43:43.474Z,5.50
2022-09-20T22:46:13.182Z,5.50
2022-09-20T22:48:43.712Z,5.50
2022-09-20T22:51:13.118Z,5.50
2022-09-20T22:53:41.649Z,5.40
2022-09-20T22:56:11.385Z,5.40
2022-09-20T22:58:41.374Z,5.40
2022-09-20T23:01:11.781Z,5.50
2022-09-20T23:03:40.843Z,5.40
2022-09-20T23:06:15.185Z,5.40
2022-09-20T23:08:43.579Z,5.40
2022-09-20T23:11:12.043Z,5.30
2022-09-20T23:13:40.038Z,5.30
2022-09-20T23:16:13.165Z,5.30
2022-09-20T23:18:41.496Z,5.30
2022-09-20T23:21:09.839Z,5.20
2022-09-20T23:23:43.110Z,5.20
2022-09-20T23:26:13.286Z,5.20
2022-09-20T23:28:43.060Z,5.20
2022-09-20T23:31:13.429Z,5.10
2022-09-20T23:33:46.503Z,5.10
2022-09-20T23:36:14.951Z,5.10
2022-09-20T23:38:44.417Z,5.10
2022-09-20T23:41:14.372Z,5.00
2022-09-20T23:43:43.294Z,5.00
2022-09-20T23:46:12.876Z,5.00
2022-09-20T23:48:42.158Z,5.00
2022-09-20T23:51:11.756Z,4.90
2022-09-20T23:53:40.123Z,5.00
2022-09-20T23:56:09.954Z,4.90
2022-09-20T23:58:38.994Z,4.90
